sensor_id;sensor_type;location;lat;lon;timestamp;temperature;humidity
39099;DHT22;24844;52.380;7.018;2022-09-17T00:00:37;11.50;99.90
39099;DHT22;24844;52.380;7.018;2022-09-17T00:03:04;11.60;99.90
39099;DHT22;24844;52.380;7.018;2022-09-17T00:05:30;11.60;99.90
39099;DHT22;24844;52.380;7.018;2022-09-17T00:07:55;11.40;99.90
39099;DHT22;24844;52.380;7.018;2022-09-17T00:10:22;11.30;99.90
39099;DHT22;24844;52.380;7.018;2022-09-17T00:12:48;11.30;99.90
39099;DHT22;24844;52.380;7.018;2022-09-17T00:15:14;11.20;99.90
39099;DHT22;24844;52.380;7.018;2022-09-17T00:17:40;11.00;99.90
39099;DHT22;24844;52.380;7.018;2022-09-17T00:20:06;10.90;99.90
39099;DHT22;24844;52.380;7.018;2022-09-17T00:22:39;10.90;99.90
39099;DHT22;24844;52.380;7.018;2022-09-17T00:25:05;10.80;99.90
39099;DHT22;24844;52.380;7.018;2022-09-17T00:27:31;10.90;99.90
39099;DHT22;24844;52.380;7.018;2022-09-17T00:29:57;10.90;99.90
39099;DHT22;24844;52.380;7.018;2022-09-17T00:32:22;10.90;99.90
39099;DHT22;24844;52.380;7.018;2022-09-17T00:34:49;10.80;99.90
39099;DHT22;24844;52.380;7.018;2022-09-17T00:37:17;10.60;99.90
39099;DHT22;24844;52.380;7.018;2022-09-17T00:39:43;10.60;99.90
39099;DHT22;24844;52.380;7.018;2022-09-17T00:42:11;10.60;99.90
39099;DHT22;24844;52.380;7.018;2022-09-17T00:50:13;10.40;99.90
39099;DHT22;24844;52.380;7.018;2022-09-17T00:52:45;10.30;99.90
39099;DHT22;24844;52.380;7.018;2022-09-17T00:55:25;10.20;99.90
39099;DHT22;24844;52.380;7.018;2022-09-17T00:57:55;10.10;99.90
39099;DHT22;24844;52.380;7.018;2022-09-17T01:00:23;10.20;99.90
39099;DHT22;24844;52.380;7.018;2022-09-17T01:02:51;10.10;99.90
39099;DHT22;24844;52.380;7.018;2022-09-17T01:05:20;10.10;99.90
39099;DHT22;24844;52.380;7.018;2022-09-17T01:08:07;10.10;99.90
39099;DHT22;24844;52.380;7.018;2022-09-17T01:10:42;10.10;99.90
39099;DHT22;24844;52.380;7.018;2022-09-17T01:15:48;9.90;99.90
39099;DHT22;24844;52.380;7.018;2022-09-17T01:18:35;9.90;99.90
39099;DHT22;24844;52.380;7.018;2022-09-17T01:24:29;9.90;99.90
39099;DHT22;24844;52.380;7.018;2022-09-17T01:32:51;9.80;99.90
39099;DHT22;24844;52.380;7.018;2022-09-17T01:46:20;9.70;99.90
39099;DHT22;24844;52.380;7.018;2022-09-17T01:48:50;9.80;99.90
39099;DHT22;24844;52.380;7.018;2022-09-17T01:51:19;9.70;99.90
39099;DHT22;24844;52.380;7.018;2022-09-17T01:53:57;9.60;99.90
39099;DHT22;24844;52.380;7.018;2022-09-17T01:56:28;9.60;99.90
39099;DHT22;24844;52.380;7.018;2022-09-17T01:59:06;9.60;99.90
39099;DHT22;24844;52.380;7.018;2022-09-17T02:01:34;9.60;99.90
39099;DHT22;24844;52.380;7.018;2022-09-17T02:04:16;9.60;99.90
39099;DHT22;24844;52.380;7.018;2022-09-17T02:06:50;9.50;99.90
39099;DHT22;24844;52.380;7.018;2022-09-17T02:09:21;9.50;99.90
39099;DHT22;24844;52.380;7.018;2022-09-17T02:11:55;9.50;99.90
39099;DHT22;24844;52.380;7.018;2022-09-17T02:14:35;9.50;99.90
39099;DHT22;24844;52.380;7.018;2022-09-17T02:17:09;9.40;99.90
39099;DHT22;24844;52.380;7.018;2022-09-17T02:19:37;9.40;99.90
39099;DHT22;24844;52.380;7.018;2022-09-17T02:25:03;9.40;99.90
39099;DHT22;24844;52.380;7.018;2022-09-17T02:28:01;9.40;99.90
39099;DHT22;24844;52.380;7.018;2022-09-17T02:30:28;9.40;99.90
39099;DHT22;24844;52.380;7.018;2022-09-17T02:32:54;9.40;99.90
39099;DHT22;24844;52.380;7.018;2022-09-17T02:35:20;9.30;99.90
39099;DHT22;24844;52.380;7.018;2022-09-17T02:37:45;9.30;99.90
39099;DHT22;24844;52.380;7.018;2022-09-17T02:40:13;9.30;99.90
39099;DHT22;24844;52.380;7.018;2022-09-17T02:51:02;9.40;99.90
39099;DHT22;24844;52.380;7.018;2022-09-17T03:04:29;9.30;99.90
39099;DHT22;24844;52.380;7.018;2022-09-17T03:06:55;9.40;99.90
39099;DHT22;24844;52.380;7.018;2022-09-17T03:09:22;9.40;99.90
39099;DHT22;24844;52.380;7.018;2022-09-17T03:11:48;9.40;99.90
39099;DHT22;24844;52.380;7.018;2022-09-17T03:14:13;9.30;99.90
39099;DHT22;24844;52.380;7.018;2022-09-17T03:16:39;9.40;99.90
39099;DHT22;24844;52.380;7.018;2022-09-17T03:19:04;9.40;99.90
39099;DHT22;24844;52.380;7.018;2022-09-17T03:21:30;9.40;99.90
39099;DHT22;24844;52.380;7.018;2022-09-17T03:23:56;9.40;99.90
39099;DHT22;24844;52.380;7.018;2022-09-17T03:26:25;9.40;99.90
39099;DHT22;24844;52.380;7.018;2022-09-17T03:28:50;9.40;99.90
39099;DHT22;24844;52.380;7.018;2022-09-17T03:31:16;9.40;99.90
39099;DHT22;24844;52.380;7.018;2022-09-17T03:33:41;9.40;99.90
39099;DHT22;24844;52.380;7.018;2022-09-17T03:36:07;9.40;99.90
39099;DHT22;24844;52.380;7.018;2022-09-17T03:38:32;9.30;99.90
39099;DHT22;24844;52.380;7.018;2022-09-17T03:41:04;9.40;99.90
39099;DHT22;24844;52.380;7.018;2022-09-17T03:43:31;9.40;99.90
39099;DHT22;24844;52.380;7.018;2022-09-17T03:45:57;9.30;99.90
39099;DHT22;24844;52.380;7.018;2022-09-17T03:48:22;9.30;99.90
39099;DHT22;24844;52.380;7.018;2022-09-17T03:50:48;9.30;99.90
39099;DHT22;24844;52.380;7.018;2022-09-17T03:53:14;9.10;99.90
39099;DHT22;24844;52.380;7.018;2022-09-17T03:55:40;9.20;99.90
39099;DHT22;24844;52.380;7.018;2022-09-17T03:58:06;9.30;99.90
39099;DHT22;24844;52.380;7.018;2022-09-17T04:00:32;9.20;99.90
39099;DHT22;24844;52.380;7.018;2022-09-17T04:02:58;9.40;99.90
39099;DHT22;24844;52.380;7.018;2022-09-17T04:05:23;9.20;99.90
39099;DHT22;24844;52.380;7.018;2022-09-17T04:07:49;9.20;99.90
39099;DHT22;24844;52.380;7.018;2022-09-17T04:10:15;9.20;99.90
39099;DHT22;24844;52.380;7.018;2022-09-17T04:12:41;9.10;99.90
39099;DHT22;24844;52.380;7.018;2022-09-17T04:15:07;9.00;99.90
39099;DHT22;24844;52.380;7.018;2022-09-17T04:17:33;9.00;99.90
39099;DHT22;24844;52.380;7.018;2022-09-17T04:19:58;9.00;99.90
39099;DHT22;24844;52.380;7.018;2022-09-17T04:22:25;9.10;99.90
39099;DHT22;24844;52.380;7.018;2022-09-17T04:24:50;9.10;99.90
39099;DHT22;24844;52.380;7.018;2022-09-17T04:27:16;9.00;99.90
39099;DHT22;24844;52.380;7.018;2022-09-17T04:29:41;9.00;99.90
39099;DHT22;24844;52.380;7.018;2022-09-17T04:32:07;9.00;99.90
39099;DHT22;24844;52.380;7.018;2022-09-17T04:34:33;9.00;99.90
39099;DHT22;24844;52.380;7.018;2022-09-17T04:36:59;8.90;99.90
39099;DHT22;24844;52.380;7.018;2022-09-17T04:39:24;8.90;99.90
39099;DHT22;24844;52.380;7.018;2022-09-17T04:41:50;8.90;99.90
39099;DHT22;24844;52.380;7.018;2022-09-17T04:44:15;9.10;99.90
39099;DHT22;24844;52.380;7.018;2022-09-17T04:46:41;9.00;99.90
39099;DHT22;24844;52.380;7.018;2022-09-17T04:49:06;9.00;99.90
39099;DHT22;24844;52.380;7.018;2022-09-17T04:51:33;9.00;99.90
39099;DHT22;24844;52.380;7.018;2022-09-17T04:53:58;9.10;99.90
39099;DHT22;24844;52.380;7.018;2022-09-17T04:56:24;9.00;99.90
39099;DHT22;24844;52.380;7.018;2022-09-17T04:58:49;9.00;99.90
39099;DHT22;24844;52.380;7.018;2022-09-17T05:01:15;9.10;99.90
39099;DHT22;24844;52.380;7.018;2022-09-17T05:03:43;9.00;99.90
39099;DHT22;24844;52.380;7.018;2022-09-17T05:06:09;8.90;99.90
39099;DHT22;24844;52.380;7.018;2022-09-17T05:08:34;8.90;99.90
39099;DHT22;24844;52.380;7.018;2022-09-17T05:11:00;9.00;99.90
39099;DHT22;24844;52.380;7.018;2022-09-17T05:13:26;9.00;99.90
39099;DHT22;24844;52.380;7.018;2022-09-17T05:15:53;9.10;99.90
39099;DHT22;24844;52.380;7.018;2022-09-17T05:18:21;9.00;99.90
39099;DHT22;24844;52.380;7.018;2022-09-17T05:20:46;9.00;99.90
39099;DHT22;24844;52.380;7.018;2022-09-17T05:23:12;9.00;99.90
39099;DHT22;24844;52.380;7.018;2022-09-17T05:25:37;9.00;99.90
39099;DHT22;24844;52.380;7.018;2022-09-17T05:28:03;9.10;99.90
39099;DHT22;24844;52.380;7.018;2022-09-17T05:30:28;9.20;99.90
39099;DHT22;24844;52.380;7.018;2022-09-17T05:33:02;9.10;99.90
39099;DHT22;24844;52.380;7.018;2022-09-17T05:35:29;9.20;99.90
39099;DHT22;24844;52.380;7.018;2022-09-17T05:38:02;9.20;99.90
39099;DHT22;24844;52.380;7.018;2022-09-17T05:40:28;9.20;99.90
39099;DHT22;24844;52.380;7.018;2022-09-17T05:42:58;9.10;99.90
39099;DHT22;24844;52.380;7.018;2022-09-17T05:45:24;9.20;99.90
39099;DHT22;24844;52.380;7.018;2022-09-17T05:47:54;9.20;99.90
39099;DHT22;24844;52.380;7.018;2022-09-17T05:50:20;9.20;99.90
39099;DHT22;24844;52.380;7.018;2022-09-17T05:52:45;9.30;99.90
39099;DHT22;24844;52.380;7.018;2022-09-17T05:55:11;9.40;99.90
39099;DHT22;24844;52.380;7.018;2022-09-17T05:57:36;9.50;99.90
39099;DHT22;24844;52.380;7.018;2022-09-17T06:00:03;9.50;99.90
39099;DHT22;24844;52.380;7.018;2022-09-17T06:02:29;9.80;99.90
39099;DHT22;24844;52.380;7.018;2022-09-17T06:04:54;9.90;99.90
39099;DHT22;24844;52.380;7.018;2022-09-17T06:07:20;9.90;99.90
39099;DHT22;24844;52.380;7.018;2022-09-17T06:09:45;9.80;99.90
39099;DHT22;24844;52.380;7.018;2022-09-17T06:12:11;9.90;99.90
39099;DHT22;24844;52.380;7.018;2022-09-17T06:14:36;9.90;99.90
39099;DHT22;24844;52.380;7.018;2022-09-17T06:17:02;9.80;99.90
39099;DHT22;24844;52.380;7.018;2022-09-17T06:19:27;9.90;99.90
39099;DHT22;24844;52.380;7.018;2022-09-17T06:21:53;10.00;99.90
39099;DHT22;24844;52.380;7.018;2022-09-17T06:24:19;10.10;99.90
39099;DHT22;24844;52.380;7.018;2022-09-17T06:26:44;10.10;99.90
39099;DHT22;24844;52.380;7.018;2022-09-17T06:29:10;10.00;99.90
39099;DHT22;24844;52.380;7.018;2022-09-17T06:31:39;10.00;99.90
39099;DHT22;24844;52.380;7.018;2022-09-17T06:34:05;9.90;99.90
39099;DHT22;24844;52.380;7.018;2022-09-17T06:36:30;10.00;99.90
39099;DHT22;24844;52.380;7.018;2022-09-17T06:38:56;10.00;99.90
39099;DHT22;24844;52.380;7.018;2022-09-17T06:41:21;10.00;99.90
39099;DHT22;24844;52.380;7.018;2022-09-17T06:43:47;10.10;99.90
39099;DHT22;24844;52.380;7.018;2022-09-17T06:46:12;10.30;99.90
39099;DHT22;24844;52.380;7.018;2022-09-17T06:48:38;10.30;99.90
39099;DHT22;24844;52.380;7.018;2022-09-17T06:51:06;10.40;99.90
39099;DHT22;24844;52.380;7.018;2022-09-17T06:53:32;10.30;99.90
39099;DHT22;24844;52.380;7.018;2022-09-17T06:55:59;10.10;99.90
39099;DHT22;24844;52.380;7.018;2022-09-17T06:58:25;10.30;99.90
39099;DHT22;24844;52.380;7.018;2022-09-17T07:00:51;10.30;99.90
39099;DHT22;24844;52.380;7.018;2022-09-17T07:03:17;10.20;99.90
39099;DHT22;24844;52.380;7.018;2022-09-17T07:05:43;10.30;99.90
39099;DHT22;24844;52.380;7.018;2022-09-17T07:08:09;10.40;99.90
39099;DHT22;24844;52.380;7.018;2022-09-17T07:10:36;10.20;99.90
39099;DHT22;24844;52.380;7.018;2022-09-17T07:13:02;10.30;99.90
39099;DHT22;24844;52.380;7.018;2022-09-17T07:15:28;10.40;99.90
39099;DHT22;24844;52.380;7.018;2022-09-17T07:17:54;10.50;99.90
39099;DHT22;24844;52.380;7.018;2022-09-17T07:20:19;10.50;99.90
39099;DHT22;24844;52.380;7.018;2022-09-17T07:22:53;10.50;99.90
39099;DHT22;24844;52.380;7.018;2022-09-17T07:25:19;10.50;99.90
39099;DHT22;24844;52.380;7.018;2022-09-17T07:27:44;10.50;99.90
39099;DHT22;24844;52.380;7.018;2022-09-17T07:30:10;10.50;99.90
39099;DHT22;24844;52.380;7.018;2022-09-17T07:32:37;10.60;99.90
39099;DHT22;24844;52.380;7.018;2022-09-17T07:35:03;10.80;99.90
39099;DHT22;24844;52.380;7.018;2022-09-17T07:37:28;10.90;99.90
39099;DHT22;24844;52.380;7.018;2022-09-17T07:39:54;11.10;99.90
39099;DHT22;24844;52.380;7.018;2022-09-17T07:42:20;11.30;99.90
39099;DHT22;24844;52.380;7.018;2022-09-17T07:44:45;11.40;99.90
39099;DHT22;24844;52.380;7.018;2022-09-17T07:47:11;11.60;99.90
39099;DHT22;24844;52.380;7.018;2022-09-17T07:49:37;11.90;99.90
39099;DHT22;24844;52.380;7.018;2022-09-17T07:52:02;12.00;99.90
39099;DHT22;24844;52.380;7.018;2022-09-17T07:54:31;12.10;99.90
39099;DHT22;24844;52.380;7.018;2022-09-17T07:56:57;12.30;99.90
39099;DHT22;24844;52.380;7.018;2022-09-17T07:59:23;12.30;99.90
39099;DHT22;24844;52.380;7.018;2022-09-17T08:01:49;13.00;99.90
39099;DHT22;24844;52.380;7.018;2022-09-17T08:04:15;13.50;99.90
39099;DHT22;24844;52.380;7.018;2022-09-17T08:06:40;14.00;99.90
39099;DHT22;24844;52.380;7.018;2022-09-17T08:09:06;14.40;99.90
39099;DHT22;24844;52.380;7.018;2022-09-17T08:11:34;14.70;99.90
39099;DHT22;24844;52.380;7.018;2022-09-17T08:13:59;15.20;99.90
39099;DHT22;24844;52.380;7.018;2022-09-17T08:16:25;15.20;99.90
39099;DHT22;24844;52.380;7.018;2022-09-17T08:18:55;15.50;99.90
39099;DHT22;24844;52.380;7.018;2022-09-17T08:21:21;15.90;99.90
39099;DHT22;24844;52.380;7.018;2022-09-17T08:23:47;15.80;99.90
39099;DHT22;24844;52.380;7.018;2022-09-17T08:26:18;16.10;99.90
39099;DHT22;24844;52.380;7.018;2022-09-17T08:28:46;16.20;99.90
39099;DHT22;24844;52.380;7.018;2022-09-17T08:31:13;16.20;99.90
39099;DHT22;24844;52.380;7.018;2022-09-17T08:33:39;16.30;99.90
39099;DHT22;24844;52.380;7.018;2022-09-17T08:36:07;16.30;99.90
39099;DHT22;24844;52.380;7.018;2022-09-17T08:38:34;16.90;99.90
39099;DHT22;24844;52.380;7.018;2022-09-17T08:46:11;17.00;99.90
39099;DHT22;24844;52.380;7.018;2022-09-17T08:48:42;16.50;99.90
39099;DHT22;24844;52.380;7.018;2022-09-17T08:59:55;17.20;99.90
39099;DHT22;24844;52.380;7.018;2022-09-17T09:02:39;17.10;99.90
39099;DHT22;24844;52.380;7.018;2022-09-17T09:05:10;16.30;99.90
39099;DHT22;24844;52.380;7.018;2022-09-17T09:07:43;15.50;99.90
39099;DHT22;24844;52.380;7.018;2022-09-17T09:10:22;14.50;99.90
39099;DHT22;24844;52.380;7.018;2022-09-17T09:12:50;14.20;99.90
39099;DHT22;24844;52.380;7.018;2022-09-17T09:15:39;14.10;99.90
39099;DHT22;24844;52.380;7.018;2022-09-17T09:18:21;14.30;99.90
39099;DHT22;24844;52.380;7.018;2022-09-17T09:23:52;15.50;99.90
39099;DHT22;24844;52.380;7.018;2022-09-17T09:26:21;15.80;99.90
39099;DHT22;24844;52.380;7.018;2022-09-17T09:29:01;15.70;99.90
39099;DHT22;24844;52.380;7.018;2022-09-17T09:34:08;14.90;99.90
39099;DHT22;24844;52.380;7.018;2022-09-17T09:36:37;15.40;99.90
39099;DHT22;24844;52.380;7.018;2022-09-17T09:39:14;15.80;99.90
39099;DHT22;24844;52.380;7.018;2022-09-17T09:44:28;16.40;99.90
39099;DHT22;24844;52.380;7.018;2022-09-17T09:52:25;16.60;99.90
39099;DHT22;24844;52.380;7.018;2022-09-17T09:58:11;16.20;99.90
39099;DHT22;24844;52.380;7.018;2022-09-17T10:00:42;15.30;99.90
39099;DHT22;24844;52.380;7.018;2022-09-17T10:03:22;15.00;99.90
39099;DHT22;24844;52.380;7.018;2022-09-17T10:06:08;14.30;99.90
39099;DHT22;24844;52.380;7.018;2022-09-17T10:08:37;14.40;99.90
39099;DHT22;24844;52.380;7.018;2022-09-17T10:11:04;14.90;99.90
39099;DHT22;24844;52.380;7.018;2022-09-17T10:13:32;15.30;99.90
39099;DHT22;24844;52.380;7.018;2022-09-17T10:18:44;15.40;99.90
39099;DHT22;24844;52.380;7.018;2022-09-17T10:21:22;15.30;99.90
39099;DHT22;24844;52.380;7.018;2022-09-17T10:23:54;15.40;99.90
39099;DHT22;24844;52.380;7.018;2022-09-17T10:26:25;15.50;99.90
39099;DHT22;24844;52.380;7.018;2022-09-17T10:28:57;15.80;99.90
39099;DHT22;24844;52.380;7.018;2022-09-17T10:31:24;16.00;99.90
39099;DHT22;24844;52.380;7.018;2022-09-17T10:33:52;16.40;99.90
39099;DHT22;24844;52.380;7.018;2022-09-17T10:36:36;16.90;99.90
39099;DHT22;24844;52.380;7.018;2022-09-17T10:39:28;17.30;99.90
39099;DHT22;24844;52.380;7.018;2022-09-17T10:44:36;17.00;99.90
39099;DHT22;24844;52.380;7.018;2022-09-17T10:47:15;16.70;99.90
39099;DHT22;24844;52.380;7.018;2022-09-17T10:49:46;16.30;99.90
39099;DHT22;24844;52.380;7.018;2022-09-17T10:52:34;16.20;99.90
39099;DHT22;24844;52.380;7.018;2022-09-17T10:58:00;18.40;99.90
39099;DHT22;24844;52.380;7.018;2022-09-17T11:00:41;19.50;99.90
39099;DHT22;24844;52.380;7.018;2022-09-17T11:06:04;21.00;99.90
39099;DHT22;24844;52.380;7.018;2022-09-17T11:08:47;21.70;96.90
39099;DHT22;24844;52.380;7.018;2022-09-17T11:13:53;21.50;97.20
39099;DHT22;24844;52.380;7.018;2022-09-17T11:16:47;19.90;98.10
39099;DHT22;24844;52.380;7.018;2022-09-17T11:22:00;18.20;99.90
39099;DHT22;24844;52.380;7.018;2022-09-17T11:33:18;16.80;99.90
39099;DHT22;24844;52.380;7.018;2022-09-17T11:35:50;16.30;99.90
39099;DHT22;24844;52.380;7.018;2022-09-17T11:40:57;15.10;99.90
39099;DHT22;24844;52.380;7.018;2022-09-17T11:43:43;15.10;99.90
39099;DHT22;24844;52.380;7.018;2022-09-17T11:46:20;15.00;99.90
39099;DHT22;24844;52.380;7.018;2022-09-17T11:48:57;14.90;99.90
39099;DHT22;24844;52.380;7.018;2022-09-17T11:51:34;15.00;99.90
39099;DHT22;24844;52.380;7.018;2022-09-17T11:59:50;14.40;99.90
39099;DHT22;24844;52.380;7.018;2022-09-17T12:08:03;14.10;99.90
39099;DHT22;24844;52.380;7.018;2022-09-17T12:10:47;13.80;99.90
39099;DHT22;24844;52.380;7.018;2022-09-17T12:13:16;13.80;99.90
39099;DHT22;24844;52.380;7.018;2022-09-17T12:15:46;13.80;99.90
39099;DHT22;24844;52.380;7.018;2022-09-17T12:20:47;14.00;99.90
39099;DHT22;24844;52.380;7.018;2022-09-17T12:23:19;14.10;99.90
39099;DHT22;24844;52.380;7.018;2022-09-17T12:26:07;14.00;99.90
39099;DHT22;24844;52.380;7.018;2022-09-17T12:28:52;14.10;99.90
39099;DHT22;24844;52.380;7.018;2022-09-17T12:34:33;14.50;99.90
39099;DHT22;24844;52.380;7.018;2022-09-17T12:37:07;13.50;99.90
39099;DHT22;24844;52.380;7.018;2022-09-17T12:42:19;12.40;99.90
39099;DHT22;24844;52.380;7.018;2022-09-17T12:50:49;12.20;99.90
39099;DHT22;24844;52.380;7.018;2022-09-17T12:53:29;12.50;99.90
39099;DHT22;24844;52.380;7.018;2022-09-17T12:59:09;12.70;99.90
39099;DHT22;24844;52.380;7.018;2022-09-17T13:01:49;12.80;99.90
39099;DHT22;24844;52.380;7.018;2022-09-17T13:04:44;13.10;99.90
39099;DHT22;24844;52.380;7.018;2022-09-17T13:16:07;13.60;99.90
39099;DHT22;24844;52.380;7.018;2022-09-17T13:18:39;13.70;99.90
39099;DHT22;24844;52.380;7.018;2022-09-17T13:21:12;13.60;99.90
39099;DHT22;24844;52.380;7.018;2022-09-17T13:26:05;13.70;99.90
39099;DHT22;24844;52.380;7.018;2022-09-17T13:28:39;13.50;99.90
39099;DHT22;24844;52.380;7.018;2022-09-17T13:31:04;13.40;99.90
39099;DHT22;24844;52.380;7.018;2022-09-17T13:36:51;13.30;99.90
39099;DHT22;24844;52.380;7.018;2022-09-17T13:39:37;13.10;99.90
39099;DHT22;24844;52.380;7.018;2022-09-17T13:42:12;13.40;99.90
39099;DHT22;24844;52.380;7.018;2022-09-17T13:44:46;13.40;99.90
39099;DHT22;24844;52.380;7.018;2022-09-17T13:47:26;13.70;99.90
39099;DHT22;24844;52.380;7.018;2022-09-17T13:50:01;13.70;99.90
39099;DHT22;24844;52.380;7.018;2022-09-17T13:52:31;13.70;99.90
39099;DHT22;24844;52.380;7.018;2022-09-17T13:54:58;13.90;99.90
39099;DHT22;24844;52.380;7.018;2022-09-17T13:57:25;13.80;99.90
39099;DHT22;24844;52.380;7.018;2022-09-17T13:59:54;13.70;99.90
39099;DHT22;24844;52.380;7.018;2022-09-17T14:02:31;13.60;99.90
39099;DHT22;24844;52.380;7.018;2022-09-17T14:05:20;13.20;99.90
39099;DHT22;24844;52.380;7.018;2022-09-17T14:07:49;12.90;99.90
39099;DHT22;24844;52.380;7.018;2022-09-17T14:12:54;12.60;99.90
39099;DHT22;24844;52.380;7.018;2022-09-17T14:23:40;12.20;99.90
39099;DHT22;24844;52.380;7.018;2022-09-17T14:26:12;12.20;99.90
39099;DHT22;24844;52.380;7.018;2022-09-17T14:28:51;12.30;99.90
39099;DHT22;24844;52.380;7.018;2022-09-17T14:31:33;12.30;99.90
39099;DHT22;24844;52.380;7.018;2022-09-17T14:34:03;12.30;99.90
39099;DHT22;24844;52.380;7.018;2022-09-17T14:36:32;12.30;99.90
39099;DHT22;24844;52.380;7.018;2022-09-17T14:38:59;12.30;99.90
39099;DHT22;24844;52.380;7.018;2022-09-17T14:41:34;12.40;99.90
39099;DHT22;24844;52.380;7.018;2022-09-17T14:44:12;12.40;99.90
39099;DHT22;24844;52.380;7.018;2022-09-17T14:46:55;12.40;99.90
39099;DHT22;24844;52.380;7.018;2022-09-17T14:49:27;12.40;99.90
39099;DHT22;24844;52.380;7.018;2022-09-17T14:51:54;12.30;99.90
39099;DHT22;24844;52.380;7.018;2022-09-17T14:54:25;12.30;99.90
39099;DHT22;24844;52.380;7.018;2022-09-17T14:56:59;12.30;99.90
39099;DHT22;24844;52.380;7.018;2022-09-17T14:59:53;12.20;99.90
39099;DHT22;24844;52.380;7.018;2022-09-17T15:02:30;12.30;99.90
39099;DHT22;24844;52.380;7.018;2022-09-17T15:04:57;12.20;99.90
39099;DHT22;24844;52.380;7.018;2022-09-17T15:07:24;12.20;99.90
39099;DHT22;24844;52.380;7.018;2022-09-17T15:09:50;12.40;99.90
39099;DHT22;24844;52.380;7.018;2022-09-17T15:12:28;12.10;99.90
39099;DHT22;24844;52.380;7.018;2022-09-17T15:14:55;12.00;99.90
39099;DHT22;24844;52.380;7.018;2022-09-17T15:17:21;11.80;99.90
39099;DHT22;24844;52.380;7.018;2022-09-17T15:19:49;11.80;99.90
39099;DHT22;24844;52.380;7.018;2022-09-17T15:27:24;11.50;99.90
39099;DHT22;24844;52.380;7.018;2022-09-17T15:32:31;11.60;99.90
39099;DHT22;24844;52.380;7.018;2022-09-17T15:37:48;11.20;99.90
39099;DHT22;24844;52.380;7.018;2022-09-17T15:40:24;11.30;99.90
39099;DHT22;24844;52.380;7.018;2022-09-17T15:42:51;11.30;99.90
39099;DHT22;24844;52.380;7.018;2022-09-17T15:45:26;11.40;99.90
39099;DHT22;24844;52.380;7.018;2022-09-17T15:47:59;11.60;99.90
39099;DHT22;24844;52.380;7.018;2022-09-17T15:50:29;11.70;99.90
39099;DHT22;24844;52.380;7.018;2022-09-17T15:55:42;11.50;99.90
39099;DHT22;24844;52.380;7.018;2022-09-17T15:58:26;11.40;99.90
39099;DHT22;24844;52.380;7.018;2022-09-17T16:08:57;11.10;99.90
39099;DHT22;24844;52.380;7.018;2022-09-17T16:11:28;11.20;99.90
39099;DHT22;24844;52.380;7.018;2022-09-17T16:13:55;11.30;99.90
39099;DHT22;24844;52.380;7.018;2022-09-17T16:16:34;11.50;99.90
39099;DHT22;24844;52.380;7.018;2022-09-17T16:19:00;11.50;99.90
39099;DHT22;24844;52.380;7.018;2022-09-17T16:21:25;11.40;99.90
39099;DHT22;24844;52.380;7.018;2022-09-17T16:23:51;11.40;99.90
39099;DHT22;24844;52.380;7.018;2022-09-17T16:26:26;11.40;99.90
39099;DHT22;24844;52.380;7.018;2022-09-17T16:28:57;11.40;99.90
39099;DHT22;24844;52.380;7.018;2022-09-17T16:31:24;11.30;99.90
39099;DHT22;24844;52.380;7.018;2022-09-17T16:33:50;11.30;99.90
39099;DHT22;24844;52.380;7.018;2022-09-17T16:36:16;11.20;99.90
39099;DHT22;24844;52.380;7.018;2022-09-17T16:38:42;11.20;99.90
39099;DHT22;24844;52.380;7.018;2022-09-17T16:41:07;11.30;99.90
39099;DHT22;24844;52.380;7.018;2022-09-17T16:43:33;11.20;99.90
39099;DHT22;24844;52.380;7.018;2022-09-17T16:46:00;11.20;99.90
39099;DHT22;24844;52.380;7.018;2022-09-17T16:48:26;11.10;99.90
39099;DHT22;24844;52.380;7.018;2022-09-17T16:50:51;11.00;99.90
39099;DHT22;24844;52.380;7.018;2022-09-17T16:53:17;11.10;99.90
39099;DHT22;24844;52.380;7.018;2022-09-17T16:55:42;10.90;99.90
39099;DHT22;24844;52.380;7.018;2022-09-17T16:58:08;10.90;99.90
39099;DHT22;24844;52.380;7.018;2022-09-17T17:00:34;11.00;99.90
39099;DHT22;24844;52.380;7.018;2022-09-17T17:03:02;11.00;99.90
39099;DHT22;24844;52.380;7.018;2022-09-17T17:05:28;11.00;99.90
39099;DHT22;24844;52.380;7.018;2022-09-17T17:07:54;11.00;99.90
39099;DHT22;24844;52.380;7.018;2022-09-17T17:10:21;11.10;99.90
39099;DHT22;24844;52.380;7.018;2022-09-17T17:12:47;11.00;99.90
39099;DHT22;24844;52.380;7.018;2022-09-17T17:15:12;11.00;99.90
39099;DHT22;24844;52.380;7.018;2022-09-17T17:17:38;10.90;99.90
39099;DHT22;24844;52.380;7.018;2022-09-17T17:20:05;10.90;99.90
39099;DHT22;24844;52.380;7.018;2022-09-17T17:22:35;11.00;99.90
39099;DHT22;24844;52.380;7.018;2022-09-17T17:25:03;11.10;99.90
39099;DHT22;24844;52.380;7.018;2022-09-17T17:27:29;10.90;99.90
39099;DHT22;24844;52.380;7.018;2022-09-17T17:29:55;10.90;99.90
39099;DHT22;24844;52.380;7.018;2022-09-17T17:32:20;11.00;99.90
39099;DHT22;24844;52.380;7.018;2022-09-17T17:34:46;10.90;99.90
39099;DHT22;24844;52.380;7.018;2022-09-17T17:37:12;10.80;99.90
39099;DHT22;24844;52.380;7.018;2022-09-17T17:39:39;10.70;99.90
39099;DHT22;24844;52.380;7.018;2022-09-17T17:42:05;10.60;99.90
39099;DHT22;24844;52.380;7.018;2022-09-17T17:44:30;10.70;99.90
39099;DHT22;24844;52.380;7.018;2022-09-17T17:46:56;10.80;99.90
39099;DHT22;24844;52.380;7.018;2022-09-17T17:49:21;10.80;99.90
39099;DHT22;24844;52.380;7.018;2022-09-17T17:51:47;10.80;99.90
39099;DHT22;24844;52.380;7.018;2022-09-17T17:54:13;10.80;99.90
39099;DHT22;24844;52.380;7.018;2022-09-17T17:56:38;10.80;99.90
39099;DHT22;24844;52.380;7.018;2022-09-17T17:59:04;10.90;99.90
39099;DHT22;24844;52.380;7.018;2022-09-17T18:01:30;11.00;99.90
39099;DHT22;24844;52.380;7.018;2022-09-17T18:04:01;11.00;99.90
39099;DHT22;24844;52.380;7.018;2022-09-17T18:06:27;10.90;99.90
39099;DHT22;24844;52.380;7.018;2022-09-17T18:08:53;10.90;99.90
39099;DHT22;24844;52.380;7.018;2022-09-17T18:11:20;11.00;99.90
39099;DHT22;24844;52.380;7.018;2022-09-17T18:13:50;10.90;99.90
39099;DHT22;24844;52.380;7.018;2022-09-17T18:16:16;11.00;99.90
39099;DHT22;24844;52.380;7.018;2022-09-17T18:18:43;11.00;99.90
39099;DHT22;24844;52.380;7.018;2022-09-17T18:21:15;11.00;99.90
39099;DHT22;24844;52.380;7.018;2022-09-17T18:23:41;11.10;99.90
39099;DHT22;24844;52.380;7.018;2022-09-17T18:26:10;11.10;99.90
39099;DHT22;24844;52.380;7.018;2022-09-17T18:28:36;11.00;99.90
39099;DHT22;24844;52.380;7.018;2022-09-17T18:31:13;11.00;99.90
39099;DHT22;24844;52.380;7.018;2022-09-17T18:33:42;11.00;99.90
39099;DHT22;24844;52.380;7.018;2022-09-17T18:36:08;11.00;99.90
39099;DHT22;24844;52.380;7.018;2022-09-17T18:38:35;10.80;99.90
39099;DHT22;24844;52.380;7.018;2022-09-17T18:41:04;10.90;99.90
39099;DHT22;24844;52.380;7.018;2022-09-17T18:43:31;10.80;99.90
39099;DHT22;24844;52.380;7.018;2022-09-17T18:45:57;10.90;99.90
39099;DHT22;24844;52.380;7.018;2022-09-17T18:48:23;10.80;99.90
39099;DHT22;24844;52.380;7.018;2022-09-17T18:51:00;10.80;99.90
39099;DHT22;24844;52.380;7.018;2022-09-17T18:53:28;10.90;99.90